createdAt,value
2019-05-28T00:05:36.843Z,13.23
2019-05-28T00:15:41.124Z,16.40
2019-05-28T00:25:44.463Z,20.60
2019-05-28T00:35:47.315Z,16.53
2019-05-28T00:45:49.918Z,12.53
2019-05-28T00:55:54.908Z,13.27
2019-05-28T01:05:59.368Z,15.43
2019-05-28T01:16:02.062Z,14.93
2019-05-28T01:26:06.074Z,17.97
2019-05-28T01:36:08.902Z,17.67
2019-05-28T01:46:11.907Z,17.60
2019-05-28T01:56:14.495Z,19.27
2019-05-28T02:06:17.074Z,18.13
2019-05-28T02:16:21.367Z,21.80
2019-05-28T02:26:24.810Z,17.50
2019-05-28T02:36:27.386Z,15.50
2019-05-28T02:46:32.051Z,20.07
2019-05-28T02:56:39.440Z,22.57
2019-05-28T03:06:45.098Z,27.73
2019-05-28T03:16:50.561Z,23.17
2019-05-28T03:26:54.074Z,23.90
2019-05-28T03:36:57.374Z,21.50
2019-05-28T03:47:01.466Z,15.33
2019-05-28T03:57:04.154Z,26.50
2019-05-28T04:07:08.107Z,22.80
2019-05-28T04:17:10.700Z,24.53
2019-05-28T04:27:13.601Z,28.93
2019-05-28T04:37:18.136Z,24.30
2019-05-28T04:47:20.720Z,20.47
2019-05-28T04:57:24.318Z,21.90
2019-05-28T05:07:27.471Z,21.03
2019-05-28T05:18:01.414Z,22.40
2019-05-28T05:28:34.693Z,18.27
2019-05-28T05:39:08.217Z,17.80
2019-05-28T05:49:41.471Z,13.13
2019-05-28T06:00:14.949Z,9.77
2019-05-28T06:10:48.708Z,12.20
2019-05-28T06:21:22.400Z,11.87
2019-05-28T06:31:56.025Z,15.40
2019-05-28T06:42:29.517Z,16.03
2019-05-28T06:53:03.051Z,12.83
2019-05-28T07:03:36.633Z,8.20
2019-05-28T07:14:10.243Z,9.13
2019-05-28T07:24:43.852Z,9.63
2019-05-28T07:35:17.184Z,9.07
2019-05-28T07:45:50.478Z,10.53
2019-05-28T07:56:23.757Z,11.67
2019-05-28T08:06:57.092Z,10.57
2019-05-28T08:17:30.551Z,9.33
2019-05-28T08:28:18.822Z,8.93
2019-05-28T08:38:39.691Z,9.13
2019-05-28T08:49:13.256Z,8.37
2019-05-28T08:59:46.562Z,10.43
2019-05-28T09:10:21.446Z,15.63
2019-05-28T09:20:55.057Z,8.03
2019-05-28T09:31:28.722Z,8.57
2019-05-28T09:42:02.202Z,10.33
2019-05-28T09:52:44.554Z,8.63
2019-05-28T10:03:10.156Z,14.33
2019-05-28T10:13:43.927Z,19.80
2019-05-28T10:24:17.709Z,8.90
2019-05-28T10:35:03.415Z,9.27
2019-05-28T10:45:26.129Z,8.20
2019-05-28T10:55:59.800Z,9.40
2019-05-28T11:06:33.474Z,7.57
2019-05-28T11:17:07.104Z,10.03
2019-05-28T11:27:40.560Z,9.93
2019-05-28T11:38:13.874Z,11.13
2019-05-28T11:48:46.647Z,13.70
2019-05-28T11:59:20.097Z,11.23
2019-05-28T12:09:53.585Z,13.33
2019-05-28T12:20:32.263Z,10.60
2019-05-28T12:31:05.779Z,17.53
2019-05-28T12:41:39.412Z,14.17
2019-05-28T12:52:12.770Z,6.50
2019-05-28T13:02:46.190Z,17.13
2019-05-28T13:13:19.816Z,6.90
2019-05-28T13:23:53.570Z,12.20
2019-05-28T13:34:26.543Z,8.10
2019-05-28T13:45:00.022Z,10.73
2019-05-28T13:55:33.690Z,13.50
2019-05-28T14:06:07.275Z,5.13
2019-05-28T14:16:40.898Z,8.93
2019-05-28T14:27:14.629Z,11.90
2019-05-28T14:37:48.167Z,7.67
2019-05-28T14:48:21.698Z,12.57
2019-05-28T14:58:55.130Z,12.87
2019-05-28T15:09:29.981Z,10.57
2019-05-28T15:20:03.879Z,10.47
2019-05-28T15:30:37.295Z,9.40
2019-05-28T15:41:10.780Z,4.97
2019-05-28T15:51:44.399Z,5.20
2019-05-28T16:02:17.227Z,6.47
2019-05-28T16:12:50.876Z,6.03
2019-05-28T16:23:24.526Z,9.13
2019-05-28T16:33:57.255Z,7.53
2019-05-28T16:44:30.741Z,13.40
2019-05-28T16:55:04.183Z,6.80
2019-05-28T17:05:37.559Z,11.60
2019-05-28T17:16:11.226Z,7.43
2019-05-28T17:26:44.766Z,6.03
2019-05-28T17:37:17.420Z,10.30
2019-05-28T17:47:50.490Z,6.10
2019-05-28T17:58:24.355Z,6.70
2019-05-28T18:08:57.776Z,10.07
2019-05-28T18:19:31.376Z,6.47
2019-05-28T18:30:05.015Z,7.43
2019-05-28T18:40:38.589Z,11.00
2019-05-28T18:51:12.173Z,6.20
2019-05-28T19:01:47.586Z,5.30
2019-05-28T19:12:21.117Z,5.03
2019-05-28T19:22:54.543Z,10.37
2019-05-28T19:33:28.007Z,10.07
2019-05-28T19:44:01.643Z,9.90
2019-05-28T19:54:35.782Z,5.43
2019-05-28T20:05:08.758Z,5.07
2019-05-28T20:15:41.404Z,5.87
2019-05-28T20:26:15.104Z,7.70
2019-05-28T20:36:49.274Z,9.93
2019-05-28T20:47:22.552Z,7.07
2019-05-28T20:57:56.038Z,7.73
2019-05-28T21:08:29.653Z,5.27
2019-05-28T21:19:03.320Z,11.37
2019-05-28T21:29:36.700Z,10.13
2019-05-28T21:40:10.366Z,9.80
2019-05-28T21:50:43.990Z,5.20
2019-05-28T22:01:25.722Z,7.53
2019-05-28T22:11:59.672Z,9.87
2019-05-28T22:22:33.129Z,11.53
2019-05-28T22:33:06.643Z,5.97
2019-05-28T22:43:39.818Z,7.10
2019-05-28T22:54:13.080Z,6.73
2019-05-28T23:04:45.797Z,6.90
2019-05-28T23:15:21.419Z,6.20
2019-05-28T23:25:55.238Z,5.57
2019-05-28T23:36:27.917Z,4.80
2019-05-28T23:47:01.391Z,5.07
2019-05-28T23:57:35.033Z,12.07
